Huvudsida
METAR-TAF:

METAR-TAF

Flygplatser :

Norman Manley International Airport

Kingston, Jamaica

latitud: 17-56N, longitud: 076-47W, höjd: 3 m

Aktuellt väderrapport

Denna rapport gjordes för 22 minuter sedan, klockan 06:00 UTC
Vind 11 kt från ost
Temperatur 28°C
Fuktighet 84%
Tryck 1014 hPa
Sikt 10 km eller mer
Få moln på en höjd av 2200 ft

METAR: MKJP 240600Z 08011KT 9999 FEW022 28/25 Q1014

Tid: 01:22 (06:22 UTC)

Väderprognos

Denna rapport gjordes för 1 timme och 7 minuter sedan, klockan 05:15 UTC
Prognos gäller från 24 kl. 06 UTC till 25 kl. 06 UTC
Vind 10 kt från sydost
Sikt 10 km eller mer
Få moln på en höjd av 2000 ft
Blir
från 24 kl. 12 UTC till 24 kl. 14 UTC
Vind 26 kt från sydost
Få moln på en höjd av 2200 ft, Cumulonimbus.
Blir
från 25 kl. 02 UTC till 25 kl. 04 UTC
Vind 10 kt från sydost

TAF: MKJP 240515Z 2406/2506 13010KT 9999 FEW020 BECMG 2412/2414 14026KT FEW022CB BECMG 2502/2504 13010KT

Aktuella väderrapporter och prognoser från 4000 flygplatser (METAR- och TAF-rapporter).

De tillgängliga stationerna syns som gula och röda prickar på kartan.

För musen över prickarna för att se namnen på stationerna.

Klicka sedan för att få väderrapporter och prognoser.

För att ändra kartan: Klicka på de gröna knapparna med ett svart kors på för att zooma in; den gröna knappen med ett streck på för att zooma ut; eller på de gröna pilarna för angränsande kartor.


METAR-TAF: